• Join FlightAware (Why Join?)
  • Login
  • US Flag 
08:14AM EDT


 

Airport Tracker/Info


-or-


 

Live Flight TrackerFlight Track Log ✈ XA-LFA ✈ 29-Apr-2013 ✈ KLAX - KSAN

Flight Track Log - Related Links

Times and Time Zones

All times are in EDT time to prevent confusion due to time zone crossing. See the XA-LFA flight status page for this flight to view local times or setup timezone preferences in your user account.

Time Position Orientation Groundspeed Altitude Reporting Facility
EDT Latitude Longitude Course Direction KTS MPH feet Rate Location/Type
10:25PM 33.9167 -118.4833 140° Southeast 248 285 2,700  Level Southern California TRACON
10:26PM 33.8611 -118.5306 215° Southwest 269 310 4,500 1,860 Climbing Los Angeles Center
10:27PM 33.7872 -118.5175 172° South 274 315 6,400 1,800 Climbing Los Angeles Center
10:28PM 33.7175 -118.4794 156° South 291 335 8,300 1,740 Climbing Los Angeles Center
10:29PM 33.6539 -118.4203 142° Southeast 294 338 10,100 1,260 Climbing Los Angeles Center
10:30PM 33.5819 -118.0484 140° Southeast  Level FlightAware Approximate
10:30PM 33.5981 -118.3347 128° Southeast 331 381 11,000  Level Los Angeles Center
10:31PM 33.5242 -118.2014 124° Southeast 396 456 11,000  Level Los Angeles Center
10:32PM 33.4617 -118.0900 124° Southeast 405 466 11,000  Level Los Angeles Center
10:33PM 33.4128 -118.0008 123° Southeast 404 465 11,000  Level Los Angeles Center
10:34PM 33.3389 -117.8669 123° Southeast 404 465 11,000  Level Los Angeles Center
10:35PM 33.2656 -117.7342 123° Southeast 402 463 11,000  Level Los Angeles Center
10:36PM 33.2036 -117.6225 124° Southeast 404 465 11,000  Level Los Angeles Center
10:37PM 33.1500 -117.5333 126° Southeast 407 468 11,000 -780 Level Southern California TRACON
10:38PM 33.0667 -117.4667 146° Southeast 350 403 9,700 -1,380 Descending Southern California TRACON
10:38PM 33.0589 -117.4461 114° Southeast 354 407 9,300 -1,560 Descending Los Angeles Center
10:39PM 32.9872 -117.3911 147° Southeast 314 361 7,700 -1,380 Descending Los Angeles Center
10:40PM 32.9333 -117.3500 147° Southeast 270 311 7,000 -420 Descending Southern California TRACON
10:41PM 32.8833 -117.3000 140° Southeast 221 254 7,000  Level Southern California TRACON
10:41PM 32.8725 -117.2997 179° South 234 269 7,000  Level Los Angeles Center
10:42PM 32.8408 -117.2247 117° Southeast 231 266 7,000  Level Los Angeles Center
10:43PM 32.8261 -117.1492 103° East 230 265 7,000  Level Los Angeles Center
10:44PM 32.8167 -117.1000 103° East 230 265 7,000 -120 Level Southern California TRACON
10:45PM 32.8000 -117.0333 107° East 224 258 6,800 -780 Descending Southern California TRACON
10:46PM 32.7833 -116.9667 107° East 228 262 5,600 -960 Descending Southern California TRACON
10:47PM 32.7667 -116.9000 107° East 217 250 5,000 -420 Descending Southern California TRACON
10:47PM 32.7500 -116.8731 126° Southeast 220 253 5,000 -120 Level Los Angeles Center
10:48PM 32.7000 -116.8603 168° South 203 234 4,900 -600 Descending Los Angeles Center
10:49PM 32.6667 -116.8833 210° Southwest 209 241 4,100 -660 Descending Southern California TRACON
10:50PM 32.6667 -116.9333 270° West 172 198 4,000 -300 Descending Southern California TRACON
10:51PM 32.6833 -116.9833 292° West 171 197 3,600 -720 Descending Southern California TRACON
10:52PM 32.7000 -117.0500 287° West 165 190 2,600 -960 Descending Southern California TRACON
10:53PM 32.7167 -117.1000 292° West 161 185 1,700 -900 Descending Southern California TRACON
10:54PM 32.7167 -117.1333 270° West 120 138 900 -720 Descending Southern California TRACON
10:54PM 32.7256 -117.1567 294° West 123 142 500 -360 Descending Los Angeles Center
10:55PM 32.7325 -117.1922 283° West 121 139 300 -240 Descending Los Angeles Center